Time;durP1;ratioP1;P1;durP2;ratioP2;P2;SDS_P1;SDS_P2;PMS_P1;PMS_P2;Temp;Humidity;BMP_temperature;BMP_pressure;BME280_temperature;BME280_humidity;BME280_pressure;Samples;Min_cycle;Max_cycle;Signal;HPM_P1;HPM_P2
2022/12/06 00:00:43;;;;;;;4.03;3.73;;;;;;;;;;4952450;28;20802;-84
2022/12/06 00:03:11;;;;;;;4.37;4.07;;;;;;;;;;4946715;28;20215;-82
2022/12/06 00:05:37;;;;;;;4.20;3.90;;;;;;;;;;4934921;29;20764;-84
2022/12/06 00:08:05;;;;;;;4.50;4.20;;;;;;;;;;4934910;28;20219;-83
2022/12/06 00:10:33;;;;;;;4.57;4.23;;;;;;;;;;4936975;29;20309;-84
2022/12/06 00:13:03;;;;;;;5.70;5.10;;;;;;;;;;4935003;29;20246;-85
2022/12/06 00:15:36;;;;;;;4.37;4.07;;;;;;;;;;4971097;28;20254;-84
2022/12/06 00:18:02;;;;;;;5.03;4.53;;;;;;;;;;4940342;28;20241;-85
2022/12/06 00:20:28;;;;;;;4.10;3.80;;;;;;;;;;4934855;29;20234;-81
2022/12/06 00:22:53;;;;;;;4.50;4.10;;;;;;;;;;4920419;29;20727;-82
2022/12/06 00:25:19;;;;;;;5.07;4.67;;;;;;;;;;4932493;28;20734;-81
2022/12/06 00:27:46;;;;;;;4.77;4.37;;;;;;;;;;4958384;28;20844;-82
2022/12/06 00:30:12;;;;;;;4.90;4.50;;;;;;;;;;4918116;29;20235;-82
2022/12/06 00:32:38;;;;;;;5.40;5.00;;;;;;;;;;4931708;28;20227;-80
2022/12/06 00:35:06;;;;;;;7.07;6.57;;;;;;;;;;4924619;29;20239;-82
2022/12/06 00:37:34;;;;;;;6.07;5.67;;;;;;;;;;4936597;29;20223;-82
2022/12/06 00:39:59;;;;;;;5.83;5.43;;;;;;;;;;4969456;28;20239;-83
2022/12/06 00:42:25;;;;;;;5.47;5.07;;;;;;;;;;4953276;28;20250;-81
2022/12/06 00:44:58;;;;;;;5.87;5.47;;;;;;;;;;4944305;29;20237;-83
2022/12/06 00:47:24;;;;;;;5.47;5.07;;;;;;;;;;4935970;28;20261;-81
2022/12/06 00:49:51;;;;;;;5.53;5.07;;;;;;;;;;4967288;28;20223;-83
2022/12/06 00:52:17;;;;;;;5.20;4.73;;;;;;;;;;4955459;28;20230;-79
2022/12/06 00:54:45;;;;;;;5.53;5.03;;;;;;;;;;4942700;29;20659;-82
2022/12/06 00:57:12;;;;;;;5.00;4.60;;;;;;;;;;4929240;29;20227;-82
2022/12/06 00:59:38;;;;;;;5.50;5.00;;;;;;;;;;4966454;28;20289;-83
2022/12/06 01:02:06;;;;;;;5.40;5.00;;;;;;;;;;4965147;28;20234;-83
2022/12/06 01:04:34;;;;;;;5.13;4.73;;;;;;;;;;4949575;29;20258;-83
2022/12/06 01:07:02;;;;;;;5.17;4.67;;;;;;;;;;4939545;29;20715;-83
2022/12/06 01:09:30;;;;;;;5.67;5.17;;;;;;;;;;4924325;29;20692;-85
2022/12/06 01:11:59;;;;;;;5.57;5.07;;;;;;;;;;4945409;28;20221;-83
2022/12/06 01:14:25;;;;;;;5.17;4.77;;;;;;;;;;4934050;28;20258;-84
2022/12/06 01:16:50;;;;;;;5.40;4.90;;;;;;;;;;4916161;29;20223;-84
2022/12/06 01:19:16;;;;;;;5.47;4.97;;;;;;;;;;4938819;29;20219;-81
2022/12/06 01:21:41;;;;;;;5.50;5.03;;;;;;;;;;4945100;28;20231;-84
2022/12/06 01:24:10;;;;;;;5.70;5.10;;;;;;;;;;4930778;29;20319;-83
2022/12/06 01:26:36;;;;;;;5.73;4.97;;;;;;;;;;4921066;29;20704;-82
2022/12/06 01:29:04;;;;;;;6.00;5.50;;;;;;;;;;4950652;28;20223;-84
2022/12/06 01:31:29;;;;;;;5.67;5.17;;;;;;;;;;4917832;28;20820;-83
2022/12/06 01:33:55;;;;;;;6.70;6.00;;;;;;;;;;4928053;29;20234;-82
2022/12/06 01:36:26;;;;;;;6.17;5.57;;;;;;;;;;4947023;28;20227;-81
2022/12/06 01:38:53;;;;;;;5.80;5.27;;;;;;;;;;4955283;28;20226;-84
2022/12/06 01:41:19;;;;;;;5.87;5.40;;;;;;;;;;4958515;28;20250;-83
2022/12/06 01:43:45;;;;;;;6.70;6.10;;;;;;;;;;4923997;29;20314;-83
2022/12/06 01:46:29;;;;;;;6.23;5.63;;;;;;;;;;4931739;28;20622;-82
2022/12/06 01:49:17;;;;;;;6.00;5.40;;;;;;;;;;4958728;28;20234;-81
2022/12/06 01:51:52;;;;;;;6.30;5.70;;;;;;;;;;4917037;29;20255;-82
2022/12/06 01:54:18;;;;;;;6.27;5.73;;;;;;;;;;4930590;28;20257;-81
2022/12/06 01:56:44;;;;;;;5.77;5.27;;;;;;;;;;4957671;28;20855;-81
2022/12/06 01:59:12;;;;;;;5.77;5.27;;;;;;;;;;4960251;28;20228;-83
2022/12/06 02:01:38;;;;;;;6.60;6.10;;;;;;;;;;4963804;28;20234;-84
2022/12/06 02:04:06;;;;;;;5.93;5.43;;;;;;;;;;4925699;28;20231;-85
2022/12/06 02:06:36;;;;;;;7.20;6.17;;;;;;;;;;4941320;29;20223;-84
2022/12/06 02:09:03;;;;;;;6.57;5.97;;;;;;;;;;4951394;28;20238;-80
2022/12/06 02:11:31;;;;;;;6.17;5.57;;;;;;;;;;4934880;29;20313;-81
2022/12/06 02:14:00;;;;;;;6.07;5.57;;;;;;;;;;4959016;29;20259;-80
2022/12/06 02:16:31;;;;;;;5.83;5.33;;;;;;;;;;4940362;28;20231;-84
2022/12/06 02:19:27;;;;;;;6.60;6.00;;;;;;;;;;4951777;28;20226;-84
2022/12/06 02:21:53;;;;;;;6.07;5.57;;;;;;;;;;4952698;28;20223;-82
2022/12/06 02:24:47;;;;;;;6.47;5.97;;;;;;;;;;4961396;28;20704;-82
2022/12/06 02:27:39;;;;;;;5.40;4.90;;;;;;;;;;4936350;29;20235;-84
2022/12/06 02:31:03;;;;;;;6.27;5.77;;;;;;;;;;4968639;28;20796;-83
2022/12/06 02:34:04;;;;;;;6.57;5.97;;;;;;;;;;4906757;29;20219;-81
2022/12/06 02:36:45;;;;;;;6.30;5.80;;;;;;;;;;4927658;29;20244;-84
2022/12/06 02:39:19;;;;;;;5.70;5.30;;;;;;;;;;4922513;29;20247;-83
2022/12/06 02:42:07;;;;;;;7.33;5.53;;;;;;;;;;4926104;29;20246;-83
2022/12/06 02:45:06;;;;;;;6.03;5.47;;;;;;;;;;4900129;29;20250;-83
2022/12/06 02:47:35;;;;;;;5.70;5.20;;;;;;;;;;4926274;29;20232;-82
2022/12/06 02:50:00;;;;;;;6.13;5.60;;;;;;;;;;4936051;29;20387;-83
2022/12/06 02:52:28;;;;;;;10.27;5.87;;;;;;;;;;4933607;29;20693;-84
2022/12/06 02:54:56;;;;;;;6.47;5.87;;;;;;;;;;4919331;29;20327;-83
2022/12/06 02:57:26;;;;;;;6.17;5.67;;;;;;;;;;4938155;29;20224;-83
2022/12/06 02:59:55;;;;;;;6.70;5.70;;;;;;;;;;4927428;29;20241;-83
2022/12/06 03:02:23;;;;;;;6.23;5.73;;;;;;;;;;4946691;28;20607;-82
2022/12/06 03:05:07;;;;;;;6.80;6.13;;;;;;;;;;4932725;29;20260;-82
2022/12/06 03:07:41;;;;;;;6.03;5.53;;;;;;;;;;4931311;29;20232;-84
2022/12/06 03:10:21;;;;;;;6.47;5.57;;;;;;;;;;4926421;29;20259;-84
2022/12/06 03:12:59;;;;;;;5.80;5.30;;;;;;;;;;4925528;29;20238;-83
2022/12/06 03:15:46;;;;;;;6.10;5.50;;;;;;;;;;4941243;29;20220;-82
2022/12/06 03:18:40;;;;;;;6.40;5.80;;;;;;;;;;4941421;29;20235;-85
2022/12/06 03:21:25;;;;;;;5.93;5.43;;;;;;;;;;4927329;29;20231;-80
2022/12/06 03:23:50;;;;;;;6.57;5.97;;;;;;;;;;4939626;29;20228;-84
2022/12/06 03:26:21;;;;;;;5.83;5.30;;;;;;;;;;4931131;29;20231;-79
2022/12/06 03:28:47;;;;;;;6.70;6.07;;;;;;;;;;4923462;29;20291;-84
2022/12/06 03:31:15;;;;;;;6.27;5.67;;;;;;;;;;4925572;29;20223;-85
2022/12/06 03:33:55;;;;;;;6.43;5.70;;;;;;;;;;4916774;29;20231;-85
2022/12/06 03:36:20;;;;;;;7.27;6.10;;;;;;;;;;4929957;29;20223;-82
2022/12/06 03:38:56;;;;;;;6.93;6.33;;;;;;;;;;4920569;29;20487;-82
2022/12/06 03:41:27;;;;;;;6.10;5.60;;;;;;;;;;4933142;29;20231;-85
2022/12/06 03:43:52;;;;;;;6.43;5.93;;;;;;;;;;4932857;29;20283;-84
2022/12/06 03:46:37;;;;;;;6.03;5.53;;;;;;;;;;4933651;29;20255;-85
2022/12/06 03:49:05;;;;;;;6.07;5.57;;;;;;;;;;4926838;29;20227;-84
2022/12/06 03:51:33;;;;;;;6.43;5.83;;;;;;;;;;4931206;29;20215;-83
2022/12/06 03:54:01;;;;;;;7.57;6.73;;;;;;;;;;4916401;29;20744;-84
2022/12/06 03:56:29;;;;;;;7.33;6.73;;;;;;;;;;4923148;29;20923;-82
2022/12/06 03:58:54;;;;;;;7.03;6.43;;;;;;;;;;4924508;29;20239;-84
2022/12/06 04:01:22;;;;;;;7.13;6.53;;;;;;;;;;4923352;29;20224;-83
2022/12/06 04:03:50;;;;;;;7.50;6.90;;;;;;;;;;4949185;29;20274;-83
2022/12/06 04:06:18;;;;;;;6.63;6.03;;;;;;;;;;4903765;29;20235;-81
2022/12/06 04:08:46;;;;;;;6.83;6.33;;;;;;;;;;4911976;29;20244;-80
2022/12/06 04:11:11;;;;;;;6.20;5.70;;;;;;;;;;4907060;29;20712;-82
2022/12/06 04:13:37;;;;;;;9.10;6.80;;;;;;;;;;4924672;29;20239;-83
2022/12/06 04:19:01;;;;;;;6.03;5.33;;;;;;;;;;4930355;29;20651;-79
2022/12/06 04:23:57;;;;;;;6.13;5.63;;;;;;;;;;4954438;29;20238;-83
2022/12/06 04:26:23;;;;;;;7.17;6.47;;;;;;;;;;4932903;29;20282;-84
2022/12/06 04:39:48;;;;;;;7.57;6.13;;;;;;;;;;4936033;29;20223;-81
2022/12/06 04:45:08;;;;;;;6.53;6.03;;;;;;;;;;4953056;28;20289;-83
2022/12/06 04:47:34;;;;;;;7.07;6.37;;;;;;;;;;4949856;28;20297;-84
2022/12/06 04:50:02;;;;;;;6.87;6.27;;;;;;;;;;4956756;28;20266;-80
2022/12/06 04:52:27;;;;;;;6.70;6.10;;;;;;;;;;4940424;28;20231;-80
2022/12/06 04:54:53;;;;;;;7.20;6.50;;;;;;;;;;4917954;28;20234;-81
2022/12/06 04:57:20;;;;;;;6.00;5.50;;;;;;;;;;4932519;29;20259;-80
2022/12/06 04:59:49;;;;;;;7.17;6.57;;;;;;;;;;4936309;29;20680;-80
2022/12/06 05:02:15;;;;;;;7.30;6.70;;;;;;;;;;4942628;28;21101;-81
2022/12/06 05:04:41;;;;;;;7.67;6.43;;;;;;;;;;4969898;28;20228;-80
2022/12/06 05:07:06;;;;;;;6.00;5.50;;;;;;;;;;4942839;28;20286;-81
2022/12/06 05:09:34;;;;;;;8.30;6.30;;;;;;;;;;4955282;28;20278;-81
2022/12/06 05:12:00;;;;;;;7.30;6.60;;;;;;;;;;4944698;29;20246;-80
2022/12/06 05:14:28;;;;;;;6.13;5.57;;;;;;;;;;4956186;28;20257;-81
2022/12/06 05:16:53;;;;;;;6.40;5.80;;;;;;;;;;4958106;28;20246;-80
2022/12/06 05:19:19;;;;;;;8.43;6.03;;;;;;;;;;4955350;28;20768;-80
2022/12/06 05:21:47;;;;;;;6.63;6.03;;;;;;;;;;4956819;28;20242;-81
2022/12/06 05:24:13;;;;;;;6.30;5.60;;;;;;;;;;4957912;28;20227;-80
2022/12/06 05:26:38;;;;;;;6.00;5.50;;;;;;;;;;4938860;29;20582;-80
2022/12/06 05:29:06;;;;;;;6.37;5.83;;;;;;;;;;4957332;28;20346;-80
2022/12/06 05:31:31;;;;;;;5.90;5.47;;;;;;;;;;4945502;28;20223;-80
2022/12/06 05:33:57;;;;;;;11.80;5.90;;;;;;;;;;4967472;28;20230;-78
2022/12/06 05:36:27;;;;;;;6.23;5.63;;;;;;;;;;4941363;29;20231;-80
2022/12/06 05:38:53;;;;;;;6.27;5.67;;;;;;;;;;4969398;28;20231;-81
2022/12/06 05:41:21;;;;;;;6.03;5.50;;;;;;;;;;4943600;28;20611;-80
2022/12/06 05:43:47;;;;;;;5.93;5.43;;;;;;;;;;4934973;29;20230;-80
2022/12/06 05:46:13;;;;;;;6.20;5.33;;;;;;;;;;4931148;28;20747;-81
2022/12/06 05:48:38;;;;;;;8.50;5.60;;;;;;;;;;4971114;28;20223;-81
2022/12/06 05:51:04;;;;;;;6.47;5.80;;;;;;;;;;4940339;29;20227;-80
2022/12/06 05:53:30;;;;;;;8.80;6.00;;;;;;;;;;4963996;28;21042;-80
2022/12/06 05:55:56;;;;;;;6.73;6.13;;;;;;;;;;4947661;28;20278;-80
2022/12/06 05:58:21;;;;;;;6.90;6.30;;;;;;;;;;4942640;29;20238;-80
2022/12/06 06:00:50;;;;;;;6.53;5.93;;;;;;;;;;4945755;28;20897;-79
2022/12/06 06:03:15;;;;;;;8.53;5.43;;;;;;;;;;4966043;28;20233;-79
2022/12/06 06:05:50;;;;;;;11.97;6.13;;;;;;;;;;4963189;28;20218;-79
2022/12/06 06:08:16;;;;;;;9.60;6.77;;;;;;;;;;4964173;28;20218;-80
2022/12/06 06:10:42;;;;;;;11.17;6.97;;;;;;;;;;4946401;28;20218;-80
2022/12/06 06:13:07;;;;;;;7.67;6.87;;;;;;;;;;4941332;28;20226;-80
2022/12/06 06:15:35;;;;;;;9.07;6.17;;;;;;;;;;4970199;28;20223;-81
2022/12/06 06:18:03;;;;;;;8.07;6.03;;;;;;;;;;4940299;28;20349;-80
2022/12/06 06:20:29;;;;;;;10.17;6.93;;;;;;;;;;4947050;28;20294;-80
2022/12/06 06:22:54;;;;;;;10.30;7.30;;;;;;;;;;4924821;29;20227;-80
2022/12/06 06:25:22;;;;;;;18.00;7.17;;;;;;;;;;4947061;28;20230;-79
2022/12/06 06:27:48;;;;;;;16.17;8.23;;;;;;;;;;4955709;28;20227;-80
2022/12/06 06:30:13;;;;;;;29.17;7.70;;;;;;;;;;4934873;28;20232;-80
2022/12/06 06:32:39;;;;;;;18.07;7.70;;;;;;;;;;4966443;28;20222;-80
2022/12/06 06:35:05;;;;;;;22.00;8.10;;;;;;;;;;4966453;28;20611;-79
2022/12/06 06:37:31;;;;;;;20.27;8.30;;;;;;;;;;4948980;29;20226;-80
2022/12/06 06:39:57;;;;;;;17.93;7.57;;;;;;;;;;4967987;28;20346;-80
2022/12/06 06:42:23;;;;;;;27.03;8.37;;;;;;;;;;4958382;28;20250;-79
2022/12/06 06:44:48;;;;;;;13.67;7.80;;;;;;;;;;4966500;28;20758;-80
2022/12/06 06:47:16;;;;;;;10.97;8.17;;;;;;;;;;4945919;28;20223;-79
2022/12/06 06:49:42;;;;;;;10.80;7.90;;;;;;;;;;4966979;28;20259;-79
2022/12/06 06:52:08;;;;;;;13.67;9.13;;;;;;;;;;4930668;28;20293;-79
2022/12/06 06:54:35;;;;;;;16.23;8.97;;;;;;;;;;4966467;28;20684;-81
2022/12/06 06:57:01;;;;;;;12.27;9.90;;;;;;;;;;4965215;28;20226;-79
2022/12/06 06:59:27;;;;;;;15.07;11.60;;;;;;;;;;4966429;28;20242;-79
2022/12/06 07:02:01;;;;;;;11.83;10.63;;;;;;;;;;4948457;28;20251;-79
2022/12/06 07:04:26;;;;;;;11.80;10.70;;;;;;;;;;4915718;29;20228;-82
2022/12/06 07:06:54;;;;;;;11.83;10.50;;;;;;;;;;4924198;28;20246;-81
2022/12/06 07:09:20;;;;;;;22.10;12.67;;;;;;;;;;4939608;28;20266;-83
2022/12/06 07:11:45;;;;;;;13.93;12.40;;;;;;;;;;4946654;28;20285;-81
2022/12/06 07:14:11;;;;;;;12.40;11.20;;;;;;;;;;4959469;28;20713;-84
2022/12/06 07:16:36;;;;;;;11.57;10.47;;;;;;;;;;4937964;29;20241;-83
2022/12/06 07:19:02;;;;;;;11.73;10.53;;;;;;;;;;4946259;29;20219;-82
2022/12/06 07:21:30;;;;;;;12.13;10.93;;;;;;;;;;4921609;29;20242;-84
2022/12/06 07:23:58;;;;;;;10.20;9.20;;;;;;;;;;4944288;28;20697;-83
2022/12/06 07:26:27;;;;;;;8.80;8.00;;;;;;;;;;4949840;28;20226;-82
2022/12/06 07:28:53;;;;;;;10.10;9.20;;;;;;;;;;4938197;28;20305;-83
2022/12/06 07:31:27;;;;;;;8.30;7.50;;;;;;;;;;4921624;29;20226;-84
2022/12/06 07:33:54;;;;;;;9.33;8.43;;;;;;;;;;4931224;29;20227;-83
2022/12/06 07:36:23;;;;;;;8.20;7.33;;;;;;;;;;4941910;29;20227;-80
2022/12/06 07:38:50;;;;;;;7.90;7.10;;;;;;;;;;4934462;28;20231;-84
2022/12/06 07:46:50;;;;;;;7.77;6.97;;;;;;;;;;4934243;29;20309;-83
2022/12/06 07:49:35;;;;;;;7.50;6.80;;;;;;;;;;4939340;28;20234;-80
2022/12/06 07:52:04;;;;;;;7.40;6.60;;;;;;;;;;4938499;28;20993;-82
2022/12/06 07:54:29;;;;;;;7.03;6.33;;;;;;;;;;4928105;29;20226;-82
2022/12/06 07:56:55;;;;;;;11.60;6.43;;;;;;;;;;4928400;29;20233;-80
2022/12/06 07:59:21;;;;;;;7.10;6.37;;;;;;;;;;4947370;29;20235;-82
2022/12/06 08:01:46;;;;;;;9.00;6.43;;;;;;;;;;4957938;28;20333;-81
2022/12/06 08:04:14;;;;;;;6.93;6.33;;;;;;;;;;4958079;28;20225;-82
2022/12/06 08:06:40;;;;;;;7.43;6.60;;;;;;;;;;4935429;28;20545;-83
2022/12/06 08:09:08;;;;;;;7.33;6.47;;;;;;;;;;4966171;28;20266;-83
2022/12/06 08:11:39;;;;;;;6.97;6.37;;;;;;;;;;4949384;29;20231;-81
2022/12/06 08:14:08;;;;;;;9.00;6.63;;;;;;;;;;4976413;28;20239;-83
2022/12/06 08:16:34;;;;;;;6.73;6.00;;;;;;;;;;4952758;28;20235;-79
2022/12/06 08:19:01;;;;;;;8.10;7.23;;;;;;;;;;4977701;28;20231;-82
2022/12/06 08:21:29;;;;;;;7.27;6.57;;;;;;;;;;4933504;28;20768;-82
2022/12/06 08:23:55;;;;;;;7.77;6.97;;;;;;;;;;4960901;28;20235;-81
2022/12/06 08:26:36;;;;;;;9.50;7.63;;;;;;;;;;4972618;28;20223;-81
2022/12/06 08:29:17;;;;;;;10.23;8.70;;;;;;;;;;4935160;29;20226;-83
2022/12/06 08:31:44;;;;;;;8.57;7.67;;;;;;;;;;4964038;28;21067;-82
2022/12/06 08:34:10;;;;;;;10.07;7.53;;;;;;;;;;4928174;28;20222;-83
2022/12/06 08:36:39;;;;;;;8.50;7.60;;;;;;;;;;4936369;29;20220;-84
2022/12/06 08:39:05;;;;;;;8.27;7.43;;;;;;;;;;4971371;28;20230;-83
2022/12/06 08:44:17;;;;;;;12.07;9.00;;;;;;;;;;4960811;28;20241;-82
2022/12/06 08:46:44;;;;;;;11.90;10.40;;;;;;;;;;4949708;28;20304;-82
2022/12/06 08:49:10;;;;;;;10.53;9.43;;;;;;;;;;4948994;28;20223;-83
2022/12/06 08:51:37;;;;;;;9.53;8.53;;;;;;;;;;4937377;29;20351;-81
2022/12/06 08:54:13;;;;;;;10.32;9.18;;;;;;;;;;4981380;28;20416;-81
2022/12/06 08:56:41;;;;;;;11.90;9.27;;;;;;;;;;4936576;28;20305;-82
2022/12/06 08:59:09;;;;;;;10.77;9.67;;;;;;;;;;4964666;28;20214;-82
2022/12/06 09:01:35;;;;;;;10.63;8.90;;;;;;;;;;4932568;29;20238;-82
2022/12/06 09:04:03;;;;;;;9.23;8.33;;;;;;;;;;4923613;28;20351;-81
2022/12/06 09:06:29;;;;;;;9.07;8.17;;;;;;;;;;4938634;29;20302;-82
2022/12/06 09:08:55;;;;;;;10.40;9.10;;;;;;;;;;4942577;28;20262;-81
2022/12/06 09:11:20;;;;;;;9.33;8.33;;;;;;;;;;4930326;28;20294;-82
2022/12/06 09:13:46;;;;;;;10.47;9.37;;;;;;;;;;4919563;29;20235;-80
2022/12/06 09:16:14;;;;;;;10.43;8.53;;;;;;;;;;4941840;28;20234;-81
2022/12/06 09:18:40;;;;;;;10.17;8.80;;;;;;;;;;4955523;28;20227;-83
2022/12/06 09:21:07;;;;;;;9.83;8.83;;;;;;;;;;4918506;29;20715;-81
2022/12/06 09:23:35;;;;;;;9.90;8.90;;;;;;;;;;4938001;29;20219;-81
2022/12/06 09:26:03;;;;;;;9.17;8.20;;;;;;;;;;4943251;28;20270;-81
2022/12/06 09:28:29;;;;;;;8.33;7.40;;;;;;;;;;4928640;28;20227;-83
2022/12/06 09:30:55;;;;;;;9.07;8.27;;;;;;;;;;4940860;29;20250;-81
2022/12/06 09:33:23;;;;;;;10.47;8.70;;;;;;;;;;4933096;28;20230;-83
2022/12/06 09:35:52;;;;;;;9.27;8.37;;;;;;;;;;4944764;28;20824;-82
2022/12/06 09:38:21;;;;;;;9.90;8.83;;;;;;;;;;4938235;28;20215;-82
2022/12/06 09:40:53;;;;;;;10.83;9.73;;;;;;;;;;4963375;28;20235;-81
2022/12/06 09:43:31;;;;;;;10.53;9.50;;;;;;;;;;4965087;28;20302;-81
2022/12/06 09:45:59;;;;;;;10.60;9.60;;;;;;;;;;4959340;28;20238;-81
2022/12/06 09:48:43;;;;;;;11.20;10.10;;;;;;;;;;4942389;28;20237;-82
2022/12/06 09:51:23;;;;;;;11.60;10.43;;;;;;;;;;4925784;29;20231;-82
2022/12/06 09:54:05;;;;;;;11.67;10.23;;;;;;;;;;4962413;28;20311;-80
2022/12/06 09:56:46;;;;;;;11.93;10.73;;;;;;;;;;4949344;28;20227;-83
2022/12/06 09:59:23;;;;;;;12.87;11.57;;;;;;;;;;4946116;28;20280;-82
2022/12/06 10:01:59;;;;;;;14.03;12.63;;;;;;;;;;4946638;29;20238;-81
2022/12/06 10:04:31;;;;;;;14.37;12.97;;;;;;;;;;4919248;29;20227;-81
2022/12/06 10:07:21;;;;;;;15.20;13.40;;;;;;;;;;4929098;29;20600;-83
2022/12/06 10:09:52;;;;;;;16.00;14.33;;;;;;;;;;4954417;28;20231;-85
2022/12/06 10:12:20;;;;;;;14.50;13.03;;;;;;;;;;4957725;28;20233;-85
2022/12/06 10:14:53;;;;;;;15.97;14.37;;;;;;;;;;4968661;28;20236;-84
2022/12/06 10:17:41;;;;;;;15.17;13.57;;;;;;;;;;4938083;29;20712;-84
2022/12/06 10:20:24;;;;;;;13.70;12.30;;;;;;;;;;4949844;28;22158;-83
2022/12/06 10:23:16;;;;;;;13.43;12.17;;;;;;;;;;4952850;28;20223;-82
2022/12/06 10:25:52;;;;;;;13.67;11.50;;;;;;;;;;4933567;28;20637;-82
2022/12/06 10:28:43;;;;;;;13.33;11.80;;;;;;;;;;4951363;28;20237;-80
2022/12/06 10:31:21;;;;;;;12.37;11.20;;;;;;;;;;4951526;29;20235;-79
2022/12/06 10:33:55;;;;;;;11.60;10.47;;;;;;;;;;4946880;29;20250;-81
2022/12/06 10:36:52;;;;;;;12.83;11.53;;;;;;;;;;4966622;28;20738;-78
2022/12/06 10:39:28;;;;;;;13.07;11.70;;;;;;;;;;4935872;28;20233;-79
2022/12/06 10:42:05;;;;;;;13.07;11.67;;;;;;;;;;4955426;28;20262;-77
2022/12/06 10:44:38;;;;;;;14.00;12.60;;;;;;;;;;4970844;28;20670;-78
2022/12/06 10:47:11;;;;;;;13.60;11.50;;;;;;;;;;4958713;29;20253;-77
2022/12/06 10:50:15;;;;;;;13.13;11.87;;;;;;;;;;4961183;28;20227;-78
2022/12/06 10:52:45;;;;;;;12.60;11.30;;;;;;;;;;4951446;29;20227;-79
2022/12/06 10:55:18;;;;;;;15.90;12.80;;;;;;;;;;4951604;28;20243;-78
2022/12/06 10:58:22;;;;;;;14.03;12.63;;;;;;;;;;4964985;28;20651;-78
2022/12/06 11:01:04;;;;;;;14.17;12.77;;;;;;;;;;4934588;28;20249;-79
2022/12/06 11:03:36;;;;;;;15.80;14.10;;;;;;;;;;4934050;29;20246;-80
2022/12/06 11:06:10;;;;;;;17.00;14.17;;;;;;;;;;4950624;29;20228;-78
2022/12/06 11:08:47;;;;;;;15.77;14.17;;;;;;;;;;4935796;29;20230;-80
2022/12/06 11:11:16;;;;;;;16.43;14.60;;;;;;;;;;4930652;28;20290;-80
2022/12/06 11:13:43;;;;;;;14.97;13.40;;;;;;;;;;4952328;28;20957;-80
2022/12/06 11:16:15;;;;;;;16.00;14.37;;;;;;;;;;4948234;28;20234;-81
2022/12/06 11:18:40;;;;;;;15.83;14.20;;;;;;;;;;4967934;28;20240;-81
2022/12/06 11:21:31;;;;;;;14.97;13.47;;;;;;;;;;4924999;28;20230;-77
2022/12/06 11:24:27;;;;;;;18.57;14.93;;;;;;;;;;4968535;28;20696;-79
2022/12/06 11:27:03;;;;;;;14.17;12.73;;;;;;;;;;4908080;29;20223;-79
2022/12/06 11:29:33;;;;;;;14.47;13.07;;;;;;;;;;4958316;28;20228;-80
2022/12/06 11:32:01;;;;;;;15.77;13.67;;;;;;;;;;4943602;28;20231;-79
2022/12/06 11:34:44;;;;;;;35.83;30.03;;;;;;;;;;4968967;28;20235;-79
2022/12/06 11:37:18;;;;;;;18.93;17.23;;;;;;;;;;4964541;28;20301;-80
2022/12/06 11:39:44;;;;;;;18.37;16.67;;;;;;;;;;4934748;29;20234;-78
2022/12/06 11:42:10;;;;;;;15.87;13.57;;;;;;;;;;4966280;28;20253;-79
2022/12/06 11:44:47;;;;;;;16.70;13.93;;;;;;;;;;4968929;28;20226;-80
2022/12/06 11:47:17;;;;;;;14.87;13.43;;;;;;;;;;4961619;28;20219;-78
2022/12/06 11:49:43;;;;;;;15.70;14.10;;;;;;;;;;4934213;28;20235;-79
2022/12/06 11:52:21;;;;;;;15.27;13.67;;;;;;;;;;4973343;28;20227;-79
2022/12/06 11:54:56;;;;;;;15.83;14.03;;;;;;;;;;4959097;28;20668;-80
2022/12/06 11:57:27;;;;;;;15.60;13.93;;;;;;;;;;4960083;28;20253;-79
2022/12/06 12:00:08;;;;;;;15.47;13.97;;;;;;;;;;4964269;28;20227;-79
2022/12/06 12:02:38;;;;;;;16.13;14.53;;;;;;;;;;4956136;28;20321;-78
2022/12/06 12:05:29;;;;;;;19.13;15.37;;;;;;;;;;4973524;28;20305;-79
2022/12/06 12:07:56;;;;;;;17.23;14.97;;;;;;;;;;4942678;29;20239;-79
2022/12/06 12:10:35;;;;;;;16.57;14.93;;;;;;;;;;4968927;28;20230;-80
2022/12/06 12:15:57;;;;;;;16.50;14.83;;;;;;;;;;4930783;29;20233;-81
2022/12/06 12:18:35;;;;;;;18.30;15.70;;;;;;;;;;4926932;28;20270;-78
2022/12/06 12:21:04;;;;;;;17.27;14.47;;;;;;;;;;4957711;28;20227;-79
2022/12/06 12:23:32;;;;;;;18.13;14.73;;;;;;;;;;4950701;28;20234;-80
2022/12/06 12:26:06;;;;;;;18.53;15.33;;;;;;;;;;4976884;28;20238;-80
2022/12/06 12:28:33;;;;;;;21.27;17.23;;;;;;;;;;4953901;29;20287;-78
2022/12/06 12:31:21;;;;;;;18.60;16.60;;;;;;;;;;4950396;28;20234;-80
2022/12/06 12:33:49;;;;;;;17.30;15.50;;;;;;;;;;4944721;29;20314;-80
2022/12/06 12:36:35;;;;;;;17.53;15.63;;;;;;;;;;4928656;28;20245;-79
2022/12/06 12:39:00;;;;;;;17.37;15.57;;;;;;;;;;4947806;28;20254;-79
2022/12/06 12:41:40;;;;;;;18.03;16.17;;;;;;;;;;4970609;28;20231;-80
2022/12/06 12:44:13;;;;;;;15.37;13.90;;;;;;;;;;4943717;28;20235;-78
2022/12/06 12:46:42;;;;;;;17.43;14.97;;;;;;;;;;4938405;28;20658;-80
2022/12/06 12:49:24;;;;;;;16.70;14.93;;;;;;;;;;4962482;28;20241;-79
2022/12/06 12:51:50;;;;;;;15.27;13.67;;;;;;;;;;4963102;28;20230;-78
2022/12/06 12:54:33;;;;;;;17.00;14.90;;;;;;;;;;4917770;29;20293;-80
2022/12/06 12:56:59;;;;;;;16.23;14.63;;;;;;;;;;4957410;28;20277;-80
2022/12/06 12:59:26;;;;;;;15.70;14.10;;;;;;;;;;4927709;28;20227;-79
2022/12/06 13:01:57;;;;;;;16.00;14.30;;;;;;;;;;4952921;28;20274;-79
2022/12/06 13:04:30;;;;;;;19.43;15.77;;;;;;;;;;4967758;28;20273;-80
2022/12/06 13:07:10;;;;;;;16.17;14.47;;;;;;;;;;4958271;28;20232;-80
2022/12/06 13:09:59;;;;;;;16.27;14.70;;;;;;;;;;4946406;29;20222;-79
2022/12/06 13:12:34;;;;;;;16.13;14.57;;;;;;;;;;4938608;29;20234;-80
2022/12/06 13:15:12;;;;;;;17.40;15.57;;;;;;;;;;4961052;28;20234;-81
2022/12/06 13:17:38;;;;;;;17.60;15.73;;;;;;;;;;4971382;28;20313;-77
2022/12/06 13:20:20;;;;;;;18.00;16.17;;;;;;;;;;4947774;28;20227;-78
2022/12/06 13:22:46;;;;;;;17.23;15.43;;;;;;;;;;4941767;29;20314;-79
2022/12/06 13:25:13;;;;;;;16.43;14.67;;;;;;;;;;4951294;29;20227;-79
2022/12/06 13:27:44;;;;;;;17.90;15.80;;;;;;;;;;4955448;28;20211;-77
2022/12/06 13:30:16;;;;;;;17.60;14.80;;;;;;;;;;4950044;28;20215;-80
2022/12/06 13:33:14;;;;;;;15.20;13.60;;;;;;;;;;4956429;28;20241;-81
2022/12/06 13:35:47;;;;;;;18.70;14.37;;;;;;;;;;4947995;29;20234;-80
2022/12/06 13:38:16;;;;;;;16.33;14.20;;;;;;;;;;4938208;28;20318;-80
2022/12/06 13:40:53;;;;;;;17.43;15.73;;;;;;;;;;4948443;28;20226;-79
2022/12/06 13:43:22;;;;;;;16.83;15.33;;;;;;;;;;4958998;28;20238;-80
2022/12/06 13:45:52;;;;;;;19.60;17.60;;;;;;;;;;4964670;28;20720;-80
2022/12/06 13:48:23;;;;;;;18.53;16.73;;;;;;;;;;4946118;28;20257;-81
2022/12/06 13:50:49;;;;;;;17.13;15.40;;;;;;;;;;4963527;28;20219;-79
2022/12/06 13:53:15;;;;;;;17.07;15.27;;;;;;;;;;4950478;28;20285;-79
2022/12/06 13:55:40;;;;;;;14.30;12.90;;;;;;;;;;4930164;29;20227;-81
2022/12/06 13:58:06;;;;;;;13.83;12.57;;;;;;;;;;4947291;29;20312;-78
2022/12/06 14:00:39;;;;;;;12.17;11.00;;;;;;;;;;4942848;29;20236;-81
2022/12/06 14:03:20;;;;;;;13.13;11.83;;;;;;;;;;4952865;28;20236;-79
2022/12/06 14:06:10;;;;;;;12.43;11.23;;;;;;;;;;4951126;28;20239;-77
2022/12/06 14:08:40;;;;;;;9.77;8.87;;;;;;;;;;4932257;29;20227;-81
2022/12/06 14:11:12;;;;;;;12.00;9.97;;;;;;;;;;4963306;28;20260;-81
2022/12/06 14:13:38;;;;;;;13.67;11.37;;;;;;;;;;4953842;28;20211;-79
2022/12/06 14:16:04;;;;;;;11.17;9.97;;;;;;;;;;4943926;28;20235;-79
2022/12/06 14:18:29;;;;;;;9.53;8.73;;;;;;;;;;4951747;28;20311;-80
2022/12/06 14:20:55;;;;;;;10.20;9.30;;;;;;;;;;4957783;28;20296;-80
2022/12/06 14:23:22;;;;;;;9.77;8.87;;;;;;;;;;4961472;28;20232;-79
2022/12/06 14:25:50;;;;;;;9.00;8.20;;;;;;;;;;4950833;28;20622;-79
2022/12/06 14:28:18;;;;;;;9.23;8.30;;;;;;;;;;4939983;28;20219;-79
2022/12/06 14:30:44;;;;;;;9.40;8.57;;;;;;;;;;4933114;28;20222;-78
2022/12/06 14:33:19;;;;;;;11.53;9.43;;;;;;;;;;4964784;28;20222;-79
2022/12/06 14:35:50;;;;;;;13.70;11.83;;;;;;;;;;4944846;28;20234;-80
2022/12/06 14:38:28;;;;;;;11.87;10.70;;;;;;;;;;4946796;28;20233;-79
2022/12/06 14:43:39;;;;;;;10.00;8.67;;;;;;;;;;4922577;28;20276;-80
2022/12/06 14:46:06;;;;;;;8.43;7.63;;;;;;;;;;4933719;28;20231;-79
2022/12/06 14:51:23;;;;;;;9.00;8.20;;;;;;;;;;4941076;28;20230;-78
2022/12/06 14:53:51;;;;;;;8.37;7.67;;;;;;;;;;4957396;28;20238;-77
2022/12/06 14:56:33;;;;;;;8.70;7.90;;;;;;;;;;4936216;29;20235;-79
2022/12/06 14:58:59;;;;;;;8.60;7.70;;;;;;;;;;4960543;28;20227;-80
2022/12/06 15:01:30;;;;;;;7.73;7.13;;;;;;;;;;4963363;28;20317;-78
2022/12/06 15:04:04;;;;;;;7.73;7.03;;;;;;;;;;4939953;28;20727;-79
2022/12/06 15:06:36;;;;;;;8.23;7.50;;;;;;;;;;4914972;29;20243;-78
2022/12/06 15:09:08;;;;;;;11.53;10.50;;;;;;;;;;4908785;29;20236;-80
2022/12/06 15:14:18;;;;;;;8.00;7.30;;;;;;;;;;4964333;28;20957;-81
2022/12/06 15:16:59;;;;;;;7.90;7.10;;;;;;;;;;4943694;28;20378;-79
2022/12/06 15:19:32;;;;;;;8.70;7.03;;;;;;;;;;4965199;28;20226;-77
2022/12/06 15:21:59;;;;;;;9.40;8.43;;;;;;;;;;4941511;29;20310;-79
2022/12/06 15:24:26;;;;;;;9.30;7.73;;;;;;;;;;4926479;28;20290;-80
2022/12/06 15:26:52;;;;;;;8.50;7.60;;;;;;;;;;4940715;28;20235;-79
2022/12/06 15:29:20;;;;;;;8.67;7.43;;;;;;;;;;4918118;28;20226;-80
2022/12/06 15:31:50;;;;;;;8.53;7.63;;;;;;;;;;4958527;28;20712;-79
2022/12/06 15:34:22;;;;;;;10.77;9.20;;;;;;;;;;4942707;28;20805;-78